Time;durP1;ratioP1;P1;durP2;ratioP2;P2;SDS_P1;SDS_P2;PMS_P1;PMS_P2;Temp;Humidity;BMP_temperature;BMP_pressure;BME280_temperature;BME280_humidity;BME280_pressure;Samples;Min_cycle;Max_cycle;Signal;HPM_P1;HPM_P2
2021/06/04 08:45:26;;;;;;;26.65;15.18;;;22.50;99.90;;;;;;5110036;27;20359;-59
2021/06/04 08:48:03;;;;;;;18.98;14.07;;;22.50;99.90;;;;;;5096312;27;20489;-60
2021/06/04 08:50:39;;;;;;;17.80;14.00;;;22.70;99.90;;;;;;5099699;28;20020;-60
2021/06/04 08:53:21;;;;;;;24.52;13.88;;;22.70;99.90;;;;;;5102719;28;20062;-60
2021/06/04 08:56:23;;;;;;;24.17;14.18;;;22.90;99.90;;;;;;5099229;28;20028;-60
2021/06/04 08:59:07;;;;;;;20.20;13.93;;;23.10;99.90;;;;;;5075859;28;20040;-59
2021/06/04 09:01:32;;;;;;;21.85;15.15;;;23.30;99.90;;;;;;5107190;27;20055;-59
2021/06/04 09:04:22;;;;;;;23.30;15.32;;;23.40;99.90;;;;;;5096382;28;20060;-60
2021/06/04 09:07:00;;;;;;;21.80;14.93;;;23.50;99.90;;;;;;5107031;28;20028;-60
2021/06/04 09:09:48;;;;;;;16.42;11.77;;;23.60;99.90;;;;;;5108288;28;20111;-59
2021/06/04 09:12:21;;;;;;;22.30;14.13;;;23.90;99.90;;;;;;5097802;28;20555;-59
2021/06/04 09:14:49;;;;;;;18.63;12.10;;;24.10;99.90;;;;;;5101553;28;20527;-60
2021/06/04 09:17:33;;;;;;;25.00;15.15;;;24.20;99.90;;;;;;5103779;28;20032;-60
2021/06/04 09:19:58;;;;;;;20.92;13.82;;;24.30;99.90;;;;;;5098105;28;20016;-60
2021/06/04 09:22:28;;;;;;;25.40;14.68;;;24.20;99.90;;;;;;5105238;28;20558;-61
2021/06/04 09:24:53;;;;;;;26.40;14.90;;;24.10;99.90;;;;;;5095953;28;20051;-60
2021/06/04 09:27:35;;;;;;;24.88;12.75;;;24.20;99.90;;;;;;5095017;28;20055;-59
2021/06/04 09:30:12;;;;;;;17.95;13.23;;;24.40;99.90;;;;;;5101824;28;20145;-59
2021/06/04 09:32:40;;;;;;;19.27;13.00;;;24.60;99.90;;;;;;5096178;28;20020;-60
2021/06/04 09:35:18;;;;;;;19.45;10.82;;;24.70;99.90;;;;;;5095650;28;20111;-59
2021/06/04 09:37:44;;;;;;;20.33;11.50;;;24.80;99.90;;;;;;5102112;28;20029;-60
2021/06/04 09:40:10;;;;;;;22.25;13.40;;;24.90;99.90;;;;;;5098665;27;20078;-60
2021/06/04 09:42:48;;;;;;;22.58;12.00;;;25.00;99.90;;;;;;5097543;28;20479;-60
2021/06/04 09:45:21;;;;;;;19.25;11.63;;;25.20;99.90;;;;;;5103049;28;20028;-60
2021/06/04 09:48:10;;;;;;;21.80;12.88;;;25.30;99.90;;;;;;5101588;28;20115;-61
2021/06/04 09:50:43;;;;;;;17.73;11.70;;;25.50;99.90;;;;;;5096633;28;20039;-59
2021/06/04 09:53:20;;;;;;;20.73;12.85;;;25.50;99.90;;;;;;5101400;28;20144;-60
2021/06/04 09:56:06;;;;;;;22.45;12.43;;;25.70;99.90;;;;;;5084567;28;20398;-59
2021/06/04 09:58:33;;;;;;;23.00;13.70;;;25.80;99.90;;;;;;5093675;28;20024;-60
2021/06/04 10:01:05;;;;;;;23.13;14.15;;;25.90;99.90;;;;;;5081272;28;20394;-61
2021/06/04 10:03:39;;;;;;;21.73;13.35;;;26.10;99.90;;;;;;5087140;28;20024;-61
2021/06/04 10:06:05;;;;;;;;;;;26.20;99.90;;;;;;5078372;28;20035;-60
2021/06/04 10:08:31;;;;;;;26.05;13.63;;;26.40;99.90;;;;;;5088676;28;20277;-61
2021/06/04 10:11:16;;;;;;;17.85;12.60;;;26.70;99.90;;;;;;5091860;22;20045;-60
2021/06/04 10:13:51;;;;;;;26.80;17.52;;;27.00;99.90;;;;;;5043130;28;20123;-58
2021/06/04 10:17:36;;;;;;;28.17;17.52;;;27.10;99.90;;;;;;5060711;28;20421;-59
2021/06/04 10:19:30;;;;;;;28.30;15.95;;;26.80;99.90;;;;;;5053527;28;20071;-60
2021/06/04 10:22:10;;;;;;;24.08;14.18;;;26.70;99.90;;;;;;5046214;28;20032;-59
2021/06/04 10:24:41;;;;;;;19.80;13.13;;;26.80;99.90;;;;;;5043355;28;20033;-60
2021/06/04 10:27:14;;;;;;;23.13;16.52;;;27.00;99.90;;;;;;5044746;28;20029;-56
2021/06/04 10:29:40;;;;;;;30.77;14.93;;;27.00;99.90;;;;;;5044575;28;20033;-62
2021/06/04 10:32:26;;;;;;;21.98;12.13;;;26.90;99.90;;;;;;5048787;28;20025;-60
2021/06/04 10:35:11;;;;;;;24.83;14.52;;;27.00;99.90;;;;;;5044918;28;20039;-61
2021/06/04 10:37:48;;;;;;;18.70;12.85;;;27.30;99.90;;;;;;5049335;28;20103;-59
2021/06/04 10:40:29;;;;;;;19.92;12.00;;;27.60;99.90;;;;;;5042389;28;20390;-59
2021/06/04 10:43:15;;;;;;;20.73;12.15;;;27.80;99.90;;;;;;5040347;28;20035;-54
2021/06/04 10:45:53;;;;;;;24.98;11.50;;;27.90;99.90;;;;;;5044173;28;20025;-59
2021/06/04 10:48:56;;;;;;;24.90;11.18;;;28.00;99.90;;;;;;5043416;28;20488;-61
2021/06/04 10:51:43;;;;;;;16.00;11.10;;;28.10;99.90;;;;;;5041553;28;20026;-57
2021/06/04 10:54:39;;;;;;;19.25;11.90;;;28.00;99.90;;;;;;5039278;28;20057;-61
2021/06/04 10:57:43;;;;;;;20.77;12.63;;;27.70;99.90;;;;;;5037905;28;20028;-57
2021/06/04 11:00:14;;;;;;;16.37;11.87;;;27.40;99.90;;;;;;5038446;28;20056;-58
2021/06/04 11:03:07;;;;;;;23.73;12.93;;;27.60;99.90;;;;;;5045494;28;20795;-59
2021/06/04 11:05:48;;;;;;;19.83;11.90;;;27.40;99.90;;;;;;5044292;28;20031;-61
2021/06/04 11:08:48;;;;;;;17.50;10.35;;;27.40;99.90;;;;;;5043083;28;20124;-58
2021/06/04 11:11:33;;;;;;;21.30;11.98;;;27.30;99.90;;;;;;5046222;28;20025;-58
2021/06/04 11:14:18;;;;;;;;;;;27.10;99.90;;;;;;5042094;28;20099;-59
2021/06/04 11:16:52;;;;;;;22.98;12.60;;;27.00;99.90;;;;;;5048504;28;19909;-58
2021/06/04 11:19:39;;;;;;;19.55;11.32;;;27.40;99.90;;;;;;5047664;28;20082;-61
2021/06/04 11:22:26;;;;;;;19.92;11.45;;;27.70;99.90;;;;;;5045752;28;20028;-62
2021/06/04 11:25:13;;;;;;;15.85;11.63;;;27.80;99.90;;;;;;5044273;28;20025;-59
2021/06/04 11:27:48;;;;;;;25.23;13.55;;;27.80;99.90;;;;;;5033273;28;20021;-61
2021/06/04 11:30:28;;;;;;;20.17;12.43;;;27.60;99.90;;;;;;5040846;28;20032;-60
2021/06/04 11:32:59;;;;;;;13.43;10.75;;;27.30;99.90;;;;;;5049452;28;20036;-61
2021/06/04 11:35:29;;;;;;;20.40;11.60;;;27.00;99.90;;;;;;5047216;28;20100;-62
2021/06/04 11:38:15;;;;;;;19.00;12.32;;;26.80;99.90;;;;;;5047980;28;20035;-59
2021/06/04 11:40:43;;;;;;;18.60;11.35;;;26.50;99.90;;;;;;5043819;28;20394;-60
2021/06/04 11:43:14;;;;;;;14.43;10.15;;;26.40;99.90;;;;;;5050256;28;20421;-59
2021/06/04 11:45:43;;;;;;;21.90;11.05;;;26.70;99.90;;;;;;5040583;28;20075;-58
2021/06/04 11:48:26;;;;;;;16.27;10.05;;;27.00;99.90;;;;;;5048409;28;20040;-62
2021/06/04 11:51:16;;;;;;;16.88;11.30;;;27.00;99.90;;;;;;5038602;28;20390;-60
2021/06/04 11:53:42;;;;;;;15.18;11.07;;;26.80;99.90;;;;;;5044129;28;20029;-62
2021/06/04 11:56:45;;;;;;;20.52;12.05;;;26.50;99.90;;;;;;5037358;28;20115;-61
2021/06/04 11:59:33;;;;;;;16.95;11.43;;;26.30;99.90;;;;;;5040975;28;20551;-61
2021/06/04 12:02:02;;;;;;;21.80;10.90;;;26.20;99.90;;;;;;5038583;28;20296;-59
2021/06/04 12:04:28;;;;;;;14.90;10.75;;;26.00;99.90;;;;;;5035647;28;20029;-62
2021/06/04 12:07:25;;;;;;;16.42;12.80;;;25.80;99.90;;;;;;5043625;28;20025;-59
2021/06/04 12:09:51;;;;;;;16.30;12.25;;;25.80;99.90;;;;;;5045317;28;20040;-62
2021/06/04 12:12:17;;;;;;;18.60;12.10;;;25.70;99.90;;;;;;5040100;28;20108;-60
2021/06/04 12:15:02;;;;;;;15.88;11.82;;;25.70;99.90;;;;;;5037289;28;20044;-61
2021/06/04 12:17:32;;;;;;;15.13;10.00;;;25.80;99.90;;;;;;5035990;28;20123;-61
2021/06/04 12:20:30;;;;;;;14.45;10.55;;;25.80;99.90;;;;;;5048232;28;20455;-62
2021/06/04 12:23:00;;;;;;;18.92;10.35;;;25.80;99.90;;;;;;5018739;28;20123;-62
2021/06/04 12:25:55;;;;;;;10.55;9.18;;;25.90;99.90;;;;;;5040584;28;20104;-61
2021/06/04 12:28:32;;;;;;;17.25;9.75;;;25.90;99.90;;;;;;5042959;28;20106;-61
2021/06/04 12:31:31;;;;;;;17.48;10.95;;;25.90;99.90;;;;;;5042855;28;20083;-60
2021/06/04 12:33:59;;;;;;;11.65;10.02;;;25.90;99.90;;;;;;5039022;28;20052;-60
2021/06/04 12:36:42;;;;;;;17.13;11.57;;;25.90;99.90;;;;;;5036259;28;20106;-60
2021/06/04 12:39:20;;;;;;;16.40;10.77;;;25.90;99.90;;;;;;5042049;28;20516;-55
2021/06/04 12:41:46;;;;;;;13.57;10.40;;;25.90;99.90;;;;;;5038425;28;20048;-61
2021/06/04 12:44:13;;;;;;;14.98;9.65;;;25.80;99.90;;;;;;5042299;28;20037;-58
2021/06/04 12:46:39;;;;;;;20.73;11.88;;;25.80;99.90;;;;;;5044120;28;20057;-62
2021/06/04 12:49:12;;;;;;;14.18;10.70;;;25.80;99.90;;;;;;5040742;28;20079;-62
2021/06/04 12:51:45;;;;;;;18.58;11.57;;;25.80;99.90;;;;;;5039082;28;20108;-55
2021/06/04 12:54:19;;;;;;;13.55;10.75;;;25.90;99.90;;;;;;5039803;28;20048;-60
2021/06/04 12:56:48;;;;;;;16.50;11.02;;;26.00;99.90;;;;;;5042096;28;20410;-59
2021/06/04 12:59:18;;;;;;;17.20;12.10;;;26.20;99.90;;;;;;5042214;28;20034;-58
2021/06/04 13:02:07;;;;;;;14.70;11.30;;;26.50;99.90;;;;;;5039254;28;20494;-59
2021/06/04 13:04:34;;;;;;;20.02;11.02;;;27.00;99.90;;;;;;5044973;28;20025;-62
2021/06/04 13:07:02;;;;;;;18.85;10.82;;;27.60;99.90;;;;;;5042602;28;20053;-61
2021/06/04 13:09:39;;;;;;;15.38;10.40;;;28.00;99.90;;;;;;5044925;28;20108;-57
2021/06/04 13:12:30;;;;;;;13.40;10.35;;;28.40;99.90;;;;;;5044758;28;20029;-61
2021/06/04 13:14:56;;;;;;;14.93;10.52;;;28.90;99.90;;;;;;5035252;28;20033;-61
2021/06/04 13:17:22;;;;;;;14.20;10.88;;;29.10;99.90;;;;;;5041685;28;20025;-59
2021/06/04 13:20:03;;;;;;;18.88;10.45;;;29.30;99.90;;;;;;5048502;28;20033;-61
2021/06/04 13:22:29;;;;;;;15.77;9.85;;;29.20;99.90;;;;;;5047954;28;20104;-60
2021/06/04 13:24:57;;;;;;;17.38;10.93;;;29.20;99.90;;;;;;5042533;28;20128;-61
2021/06/04 13:27:30;;;;;;;15.48;10.13;;;29.00;99.90;;;;;;5045862;28;20036;-59
2021/06/04 13:30:00;;;;;;;16.20;9.70;;;28.70;99.90;;;;;;5036316;28;20498;-54
2021/06/04 13:32:49;;;;;;;15.73;9.65;;;28.50;99.90;;;;;;5043883;28;20029;-61
2021/06/04 13:35:36;;;;;;;16.98;10.68;;;28.20;99.90;;;;;;5043830;28;20063;-60
2021/06/04 13:38:06;;;;;;;15.43;10.82;;;27.90;99.90;;;;;;5051499;28;20068;-60
2021/06/04 13:40:36;;;;;;;13.68;11.50;;;27.80;99.90;;;;;;5044680;28;20017;-59
2021/06/04 13:43:06;;;;;;;17.25;11.82;;;28.00;99.90;;;;;;5044220;28;20095;-60
2021/06/04 13:45:42;;;;;;;21.80;12.82;;;28.40;99.90;;;;;;5043147;28;20032;-58
2021/06/04 13:48:15;;;;;;;15.30;11.07;;;28.70;99.90;;;;;;5044104;28;20049;-59
2021/06/04 13:51:04;;;;;;;24.98;12.32;;;29.10;99.90;;;;;;5051054;28;20033;-59
2021/06/04 13:53:42;;;;;;;15.48;11.43;;;29.40;99.90;;;;;;5048452;28;20116;-61
2021/06/04 13:56:22;;;;;;;19.80;11.80;;;29.60;99.90;;;;;;5049956;28;20044;-60
2021/06/04 13:59:09;;;;;;;19.92;13.13;;;29.30;99.90;;;;;;5049047;28;20387;-62
2021/06/04 14:01:56;;;;;;;18.17;13.93;;;29.00;99.90;;;;;;5048043;28;20498;-62
2021/06/04 14:04:42;;;;;;;16.15;11.48;;;28.90;99.90;;;;;;5048708;28;20040;-61
2021/06/04 14:07:24;;;;;;;16.58;12.30;;;28.80;99.90;;;;;;5048947;28;20111;-62
2021/06/04 14:09:53;;;;;;;20.38;12.18;;;28.80;99.90;;;;;;5043933;28;20041;-60
2021/06/04 14:12:18;;;;;;;16.67;11.68;;;28.60;99.90;;;;;;5051814;28;20024;-63
2021/06/04 14:14:46;;;;;;;18.92;13.50;;;29.00;99.90;;;;;;5051184;28;20032;-63
2021/06/04 14:17:38;;;;;;;19.42;13.20;;;29.20;99.90;;;;;;5047064;28;20111;-61
2021/06/04 14:20:08;;;;;;;18.55;12.68;;;28.90;99.90;;;;;;5042238;28;20017;-62
2021/06/04 14:22:41;;;;;;;18.58;13.57;;;29.10;99.90;;;;;;5046234;28;20117;-60
2021/06/04 14:25:12;;;;;;;20.38;13.30;;;29.00;99.90;;;;;;5043839;28;20017;-62
2021/06/04 14:28:01;;;;;;;17.95;13.75;;;29.20;99.90;;;;;;5043907;28;20060;-60
2021/06/04 14:30:32;;;;;;;22.45;15.18;;;29.10;99.90;;;;;;5050521;28;20494;-60
2021/06/04 14:33:27;;;;;;;23.02;15.60;;;28.90;99.90;;;;;;5041919;28;20387;-61
2021/06/04 14:35:58;;;;;;;16.75;11.40;;;28.70;99.90;;;;;;5044353;28;20041;-60
2021/06/04 14:38:35;;;;;;;18.05;13.20;;;28.80;99.90;;;;;;5051857;28;20487;-62
2021/06/04 14:41:08;;;;;;;23.08;14.73;;;28.80;99.90;;;;;;5038955;28;20039;-61
2021/06/04 14:43:35;;;;;;;21.23;14.57;;;28.50;99.90;;;;;;5045973;28;20044;-63
2021/06/04 14:46:05;;;;;;;22.80;13.38;;;28.50;99.90;;;;;;5051437;28;20025;-60
2021/06/04 14:48:31;;;;;;;18.63;12.27;;;28.30;99.90;;;;;;5046535;28;20037;-61
2021/06/04 14:51:00;;;;;;;19.40;14.13;;;28.60;99.90;;;;;;5047498;28;20035;-61
2021/06/04 14:53:26;;;;;;;18.92;13.68;;;28.40;99.90;;;;;;5047829;28;20418;-62
2021/06/04 14:55:52;;;;;;;19.33;12.65;;;28.20;99.90;;;;;;5040503;28;20040;-62
2021/06/04 14:58:18;;;;;;;16.13;12.57;;;28.20;99.90;;;;;;5042434;28;20087;-59
2021/06/04 15:00:44;;;;;;;17.92;12.85;;;27.90;99.90;;;;;;5047522;28;20025;-62
2021/06/04 15:03:14;;;;;;;21.80;12.65;;;27.70;99.90;;;;;;5046472;28;20037;-61
2021/06/04 15:05:41;;;;;;;15.05;11.23;;;27.60;99.90;;;;;;5044100;28;20025;-60
2021/06/04 15:08:08;;;;;;;16.52;12.27;;;27.40;99.90;;;;;;5050467;28;20029;-61
2021/06/04 15:10:34;;;;;;;15.05;11.02;;;27.30;99.90;;;;;;5044261;28;20044;-61
2021/06/04 15:13:01;;;;;;;13.85;11.07;;;27.20;99.90;;;;;;5048668;28;20033;-60
2021/06/04 15:15:30;;;;;;;13.93;10.85;;;27.30;99.90;;;;;;5043225;28;20040;-59
2021/06/04 15:17:57;;;;;;;13.85;10.05;;;27.20;99.90;;;;;;5037423;28;20026;-59
2021/06/04 15:20:24;;;;;;;16.85;11.43;;;27.20;99.90;;;;;;5042597;28;20387;-60
2021/06/04 15:22:50;;;;;;;17.88;11.85;;;27.00;99.90;;;;;;5036822;28;20419;-60
2021/06/04 15:25:17;;;;;;;14.98;10.90;;;26.90;99.90;;;;;;5042644;28;20039;-58
2021/06/04 15:27:45;;;;;;;15.35;11.00;;;26.90;99.90;;;;;;5042076;28;20024;-58
2021/06/04 15:30:11;;;;;;;16.15;11.38;;;27.00;99.90;;;;;;5043057;28;20520;-58
2021/06/04 15:32:37;;;;;;;16.92;11.50;;;26.90;99.90;;;;;;5043562;28;20032;-60
2021/06/04 15:35:04;;;;;;;14.52;11.43;;;27.10;99.90;;;;;;5046935;28;20540;-61
2021/06/04 15:37:29;;;;;;;16.92;12.10;;;27.10;99.90;;;;;;5043127;28;20399;-59
2021/06/04 15:39:55;;;;;;;17.80;12.82;;;27.20;99.90;;;;;;5043748;28;20111;-61
2021/06/04 15:42:20;;;;;;;21.15;13.00;;;27.30;99.90;;;;;;5036449;28;20395;-57
2021/06/04 15:44:47;;;;;;;18.88;12.68;;;27.50;99.90;;;;;;5050197;28;20040;-60
2021/06/04 15:47:13;;;;;;;14.00;11.10;;;27.70;99.90;;;;;;5053926;28;20032;-58
2021/06/04 15:49:39;;;;;;;17.17;11.02;;;27.80;99.90;;;;;;5031710;28;20639;-61
2021/06/04 15:52:04;;;;;;;16.55;11.00;;;27.60;99.90;;;;;;5045182;28;20371;-60
2021/06/04 15:54:31;;;;;;;13.82;11.23;;;27.60;99.90;;;;;;5031718;28;20069;-58
2021/06/04 15:56:57;;;;;;;14.32;10.88;;;27.40;99.90;;;;;;5037093;28;20021;-58
2021/06/04 15:59:22;;;;;;;15.60;10.95;;;27.30;99.90;;;;;;5050814;28;20036;-61
2021/06/04 16:01:49;;;;;;;15.13;11.10;;;27.00;99.90;;;;;;5046101;28;20032;-58
2021/06/04 16:04:18;;;;;;;17.60;11.23;;;26.90;99.90;;;;;;5049581;28;20120;-59
2021/06/04 16:06:45;;;;;;;17.70;11.57;;;26.70;99.90;;;;;;5044522;28;20037;-58
2021/06/04 16:09:13;;;;;;;20.70;11.27;;;26.50;99.90;;;;;;5049676;28;20025;-61
2021/06/04 16:11:42;;;;;;;14.60;11.27;;;26.30;99.90;;;;;;5112525;22;20088;-64
2021/06/04 16:14:08;;;;;;;16.55;11.68;;;26.20;99.90;;;;;;5089151;28;20028;-64
2021/06/04 16:16:34;;;;;;;15.48;11.57;;;26.10;99.90;;;;;;5109200;28;20027;-65
2021/06/04 16:19:00;;;;;;;14.13;11.73;;;26.00;99.90;;;;;;5110209;28;20031;-64
2021/06/04 16:21:26;;;;;;;17.02;13.65;;;25.90;99.90;;;;;;5110361;28;20476;-64
2021/06/04 16:23:52;;;;;;;18.80;12.35;;;25.90;99.90;;;;;;5110545;28;20027;-63
2021/06/04 16:26:23;;;;;;;14.93;12.35;;;25.80;99.90;;;;;;5109489;28;20039;-64
2021/06/04 16:28:50;;;;;;;13.80;11.57;;;25.80;99.90;;;;;;5110317;28;20044;-62
2021/06/04 16:31:16;;;;;;;14.43;12.13;;;25.70;99.90;;;;;;5109318;28;20035;-64
2021/06/04 16:33:43;;;;;;;18.63;13.40;;;25.60;99.90;;;;;;5110210;28;20027;-64
2021/06/04 16:36:11;;;;;;;15.55;12.60;;;25.70;99.90;;;;;;5109204;28;20428;-65
2021/06/04 16:38:38;;;;;;;19.25;12.88;;;25.60;99.90;;;;;;5109812;28;20028;-64
2021/06/04 16:41:06;;;;;;;27.15;17.23;;;25.60;99.90;;;;;;5109192;28;20047;-64
2021/06/04 16:43:33;;;;;;;17.08;11.45;;;25.60;99.90;;;;;;5109099;28;20027;-64
2021/06/04 16:46:00;;;;;;;19.38;12.68;;;25.60;99.90;;;;;;5109596;28;20397;-63
2021/06/04 16:48:25;;;;;;;18.33;12.57;;;25.70;99.90;;;;;;5109893;28;20028;-65
2021/06/04 16:50:52;;;;;;;14.43;11.52;;;25.70;99.90;;;;;;5091571;28;20027;-65
2021/06/04 16:53:18;;;;;;;17.15;11.07;;;25.80;99.90;;;;;;5109026;28;20528;-65
2021/06/04 16:55:44;;;;;;;15.77;11.25;;;25.80;99.90;;;;;;5109605;28;20035;-64
2021/06/04 16:58:16;;;;;;;18.42;11.27;;;25.90;99.90;;;;;;5109459;28;20024;-65
2021/06/04 17:00:42;;;;;;;14.02;10.65;;;26.00;99.90;;;;;;5109725;28;20028;-64
2021/06/04 17:03:08;;;;;;;23.27;14.82;;;26.10;99.90;;;;;;5107159;28;20115;-63
2021/06/04 17:05:34;;;;;;;29.05;15.10;;;26.00;99.90;;;;;;5111320;28;20452;-63
2021/06/04 17:07:59;;;;;;;20.42;14.27;;;26.10;99.90;;;;;;5113508;28;20026;-64
2021/06/04 17:10:25;;;;;;;16.02;10.30;;;26.10;99.90;;;;;;5113785;28;20531;-64
2021/06/04 17:12:52;;;;;;;12.68;8.40;;;25.90;99.90;;;;;;5113322;28;20061;-64
2021/06/04 17:15:26;;;;;;;13.13;9.80;;;25.70;99.90;;;;;;5110909;28;20028;-62
2021/06/04 17:17:52;;;;;;;10.73;8.80;;;25.40;99.90;;;;;;5113201;28;20109;-62
2021/06/04 17:20:18;;;;;;;13.15;8.93;;;25.10;99.90;;;;;;5113259;28;20758;-64
2021/06/04 17:22:44;;;;;;;13.80;8.73;;;24.80;99.90;;;;;;5113297;28;20125;-65
2021/06/04 17:25:14;;;;;;;12.88;9.68;;;24.50;99.90;;;;;;5112904;28;20067;-65
2021/06/04 17:27:41;;;;;;;12.93;9.88;;;24.40;99.90;;;;;;5113518;28;20015;-65
2021/06/04 17:30:08;;;;;;;10.75;8.98;;;24.30;99.90;;;;;;5112973;28;20484;-65
2021/06/04 17:32:34;;;;;;;12.32;9.98;;;24.10;99.90;;;;;;5113149;28;20023;-64
2021/06/04 17:34:59;;;;;;;13.45;8.75;;;24.00;99.90;;;;;;5112924;28;20035;-64
2021/06/04 17:37:25;;;;;;;10.32;7.65;;;24.00;99.90;;;;;;5112908;28;20034;-63
2021/06/04 17:39:50;;;;;;;9.55;5.88;;;23.80;99.90;;;;;;5080700;28;20015;-62
2021/06/04 17:42:16;;;;;;;7.82;5.90;;;23.80;99.90;;;;;;5112636;28;20138;-64
2021/06/04 17:44:41;;;;;;;7.90;5.97;;;23.50;99.90;;;;;;5113214;28;20097;-65
2021/06/04 17:47:07;;;;;;;8.48;6.03;;;23.40;99.90;;;;;;5110541;28;20044;-63
2021/06/04 17:49:33;;;;;;;10.93;5.63;;;23.50;99.90;;;;;;5112205;28;20020;-65
2021/06/04 17:51:58;;;;;;;8.75;6.63;;;23.50;99.90;;;;;;5112644;28;20476;-64
2021/06/04 17:54:24;;;;;;;11.63;6.57;;;23.40;99.90;;;;;;5112383;28;20035;-65
2021/06/04 17:56:50;;;;;;;7.78;6.13;;;23.30;99.90;;;;;;5111155;28;20081;-64
2021/06/04 17:59:15;;;;;;;10.18;5.75;;;23.30;99.90;;;;;;5112087;28;20034;-65
2021/06/04 18:01:44;;;;;;;9.20;5.30;;;23.20;99.90;;;;;;5107155;28;20027;-64
2021/06/04 18:04:09;;;;;;;7.75;5.60;;;23.20;99.90;;;;;;5108504;28;20515;-64
2021/06/04 18:06:35;;;;;;;8.10;6.72;;;23.20;99.90;;;;;;5111929;28;20026;-63
2021/06/04 18:09:01;;;;;;;6.90;6.13;;;23.20;99.90;;;;;;5103078;28;20031;-63
2021/06/04 18:11:29;;;;;;;9.85;6.80;;;23.30;99.90;;;;;;5106759;28;20507;-61
2021/06/04 18:13:55;;;;;;;10.95;6.90;;;23.20;99.90;;;;;;5112441;28;20039;-64
2021/06/04 18:16:20;;;;;;;14.48;7.90;;;23.00;99.90;;;;;;5111882;27;20040;-64
2021/06/04 18:18:46;;;;;;;12.23;7.85;;;22.60;99.90;;;;;;5110931;28;20028;-64
2021/06/04 18:21:13;;;;;;;18.33;7.68;;;22.50;99.90;;;;;;5111925;28;20024;-64
2021/06/04 18:23:44;;;;;;;11.10;8.02;;;22.30;99.90;;;;;;5111714;28;20105;-65
2021/06/04 18:26:10;;;;;;;14.10;7.53;;;22.10;99.90;;;;;;5111817;28;20027;-64
2021/06/04 18:28:36;;;;;;;11.15;7.07;;;21.80;99.90;;;;;;5110740;28;20763;-63
2021/06/04 18:31:06;;;;;;;9.73;5.72;;;21.50;99.90;;;;;;5111927;28;20054;-64
2021/06/04 18:33:32;;;;;;;8.63;5.22;;;21.10;99.90;;;;;;5111699;28;20115;-64
2021/06/04 18:35:58;;;;;;;8.27;4.95;;;21.00;99.90;;;;;;5110328;28;20102;-64
2021/06/04 18:38:24;;;;;;;7.50;3.45;;;20.80;99.90;;;;;;5111388;28;20042;-65
2021/06/04 18:40:52;;;;;;;5.07;3.15;;;20.50;99.90;;;;;;5110108;28;20081;-64
2021/06/04 18:43:21;;;;;;;5.00;3.53;;;20.20;99.90;;;;;;5106594;28;20247;-65
2021/06/04 18:45:47;;;;;;;4.68;2.70;;;19.90;99.90;;;;;;5087967;28;20479;-64
2021/06/04 18:48:13;;;;;;;5.25;3.30;;;19.80;99.90;;;;;;5111145;28;20051;-62
2021/06/04 18:50:39;;;;;;;5.10;3.10;;;19.80;99.90;;;;;;5110764;28;21731;-65
2021/06/04 18:53:09;;;;;;;5.38;4.30;;;19.80;99.90;;;;;;5111430;28;20150;-63
2021/06/04 18:55:36;;;;;;;7.65;3.33;;;19.80;99.90;;;;;;5109475;28;20364;-64
2021/06/04 18:58:04;;;;;;;4.05;3.10;;;19.90;99.90;;;;;;5106823;28;20019;-64
2021/06/04 19:00:35;;;;;;;16.90;4.10;;;19.90;99.90;;;;;;5111322;28;20744;-66
2021/06/04 19:03:01;;;;;;;6.70;3.70;;;20.00;99.90;;;;;;5110658;28;20149;-64
2021/06/04 19:05:28;;;;;;;6.10;4.28;;;19.80;99.90;;;;;;5110488;28;20107;-65
2021/06/04 19:07:54;;;;;;;9.57;4.25;;;19.70;99.90;;;;;;5109973;28;20094;-65
2021/06/04 19:10:22;;;;;;;10.63;4.20;;;19.70;99.90;;;;;;5110364;28;20022;-65
2021/06/04 19:12:48;;;;;;;13.88;6.35;;;19.60;99.90;;;;;;5109968;27;20050;-66
2021/06/04 19:15:14;;;;;;;22.90;7.32;;;19.70;99.90;;;;;;5110947;28;20473;-66
2021/06/04 19:17:39;;;;;;;24.20;8.52;;;19.50;99.90;;;;;;5110175;28;20034;-65
2021/06/04 19:20:08;;;;;;;29.52;8.80;;;19.20;99.90;;;;;;5110045;28;20031;-67
2021/06/04 19:22:34;;;;;;;17.33;9.82;;;18.80;99.90;;;;;;5110565;28;20106;-66
2021/06/04 19:25:00;;;;;;;20.85;8.82;;;18.70;99.90;;;;;;5110190;28;20123;-67
2021/06/04 19:27:26;;;;;;;23.40;10.32;;;18.70;99.90;;;;;;5110275;28;20019;-66
2021/06/04 19:29:52;;;;;;;23.25;9.30;;;18.70;99.90;;;;;;5110786;28;20549;-65
2021/06/04 19:32:17;;;;;;;16.52;9.50;;;18.60;99.90;;;;;;5110647;28;20098;-65
2021/06/04 19:34:44;;;;;;;23.65;10.35;;;18.50;99.90;;;;;;5110583;28;20058;-65
2021/06/04 19:37:11;;;;;;;23.45;11.50;;;18.40;99.90;;;;;;5109369;28;20103;-66
2021/06/04 19:39:36;;;;;;;22.00;11.50;;;18.50;99.90;;;;;;5110141;28;20412;-66
2021/06/04 19:42:03;;;;;;;22.25;11.65;;;18.40;99.90;;;;;;5092430;28;20489;-66
2021/06/04 19:44:31;;;;;;;20.10;12.07;;;18.40;99.90;;;;;;5110525;28;20032;-62
2021/06/04 19:46:57;;;;;;;18.85;11.20;;;18.40;99.90;;;;;;5109804;27;20031;-62
2021/06/04 19:49:23;;;;;;;17.98;11.43;;;18.50;99.90;;;;;;5110537;28;20077;-64
2021/06/04 19:51:50;;;;;;;20.23;12.38;;;18.40;99.90;;;;;;5112973;27;20037;-65
2021/06/04 19:54:16;;;;;;;18.38;11.50;;;18.50;99.90;;;;;;5110437;28;20024;-64
2021/06/04 19:56:43;;;;;;;20.33;11.90;;;18.50;99.90;;;;;;5110487;28;20104;-65
2021/06/04 19:59:09;;;;;;;18.73;12.25;;;18.60;99.90;;;;;;5096216;27;20051;-65
2021/06/04 20:01:38;;;;;;;17.02;11.77;;;18.60;99.90;;;;;;5110509;28;20034;-65
2021/06/04 20:04:04;;;;;;;20.55;13.38;;;18.60;99.90;;;;;;5110264;28;20123;-65
2021/06/04 20:06:30;;;;;;;17.20;12.15;;;18.50;99.90;;;;;;5110014;28;20024;-64
2021/06/04 20:08:55;;;;;;;18.52;13.15;;;18.60;99.90;;;;;;5092193;28;20396;-63
2021/06/04 20:11:23;;;;;;;23.10;13.82;;;18.60;99.90;;;;;;5110502;28;20051;-65
2021/06/04 20:13:49;;;;;;;23.38;12.70;;;18.50;99.90;;;;;;5107780;28;20505;-65
2021/06/04 20:16:15;;;;;;;25.25;13.98;;;18.50;99.90;;;;;;5108517;28;20396;-63
2021/06/04 20:18:41;;;;;;;22.33;13.95;;;18.50;99.90;;;;;;5113203;27;20027;-65
2021/06/04 20:21:11;;;;;;;24.40;14.70;;;18.40;99.90;;;;;;5109545;28;20040;-64
2021/06/04 20:23:39;;;;;;;21.67;13.80;;;18.40;99.90;;;;;;5107348;28;20320;-65
2021/06/04 20:26:05;;;;;;;27.25;17.33;;;18.50;99.90;;;;;;5109943;28;20039;-64
2021/06/04 20:28:32;;;;;;;28.92;16.20;;;18.50;99.90;;;;;;5108235;28;20034;-64
2021/06/04 20:31:00;;;;;;;30.55;18.08;;;18.50;99.90;;;;;;5090011;28;20035;-64
2021/06/04 20:33:28;;;;;;;23.35;17.02;;;18.60;99.90;;;;;;5105714;28;20042;-64
2021/06/04 20:35:55;;;;;;;24.60;17.75;;;18.60;99.90;;;;;;5104844;28;20469;-64
2021/06/04 20:38:21;;;;;;;29.00;20.33;;;18.60;99.90;;;;;;5108197;28;20027;-64
2021/06/04 20:40:47;;;;;;;32.10;20.08;;;18.60;99.90;;;;;;5109474;27;20515;-65
2021/06/04 20:43:14;;;;;;;29.67;19.63;;;18.60;99.90;;;;;;5101417;28;20028;-65
2021/06/04 20:45:50;;;;;;;31.17;20.27;;;18.60;99.90;;;;;;5101487;28;20467;-65
2021/06/04 20:48:18;;;;;;;32.65;22.63;;;18.60;99.90;;;;;;5100838;28;20134;-64
2021/06/04 20:50:47;;;;;;;35.75;24.30;;;18.60;99.90;;;;;;5109051;28;20481;-65
2021/06/04 20:53:17;;;;;;;34.90;24.75;;;18.60;99.90;;;;;;5107349;28;20060;-65
2021/06/04 20:55:43;;;;;;;35.58;22.08;;;18.60;99.90;;;;;;5107228;28;20031;-63
2021/06/04 20:58:09;;;;;;;38.60;22.75;;;18.60;99.90;;;;;;5109883;28;20043;-63
2021/06/04 21:00:35;;;;;;;41.10;22.80;;;18.60;99.90;;;;;;5109486;28;20035;-64
2021/06/04 21:03:02;;;;;;;30.27;19.30;;;18.60;99.90;;;;;;5108824;28;20088;-65
2021/06/04 21:05:32;;;;;;;28.15;19.13;;;18.60;99.90;;;;;;5104833;28;20058;-66
2021/06/04 21:07:58;;;;;;;28.52;19.45;;;18.60;99.90;;;;;;5106161;28;20043;-64
2021/06/04 21:10:25;;;;;;;24.38;17.70;;;18.60;99.90;;;;;;5105003;28;20497;-64
2021/06/04 21:12:52;;;;;;;28.02;17.67;;;18.60;99.90;;;;;;5107034;28;20073;-61
2021/06/04 21:15:21;;;;;;;25.63;18.10;;;18.60;99.90;;;;;;5101108;28;20032;-63
2021/06/04 21:17:47;;;;;;;27.92;19.17;;;18.50;99.90;;;;;;5104110;28;20085;-65
2021/06/04 21:20:24;;;;;;;27.60;19.48;;;18.50;99.90;;;;;;5105671;28;20409;-65
2021/06/04 21:22:51;;;;;;;27.85;19.17;;;18.50;99.90;;;;;;5108720;28;20031;-64
2021/06/04 21:25:21;;;;;;;30.05;19.48;;;18.50;99.90;;;;;;5106315;28;20064;-65
2021/06/04 21:27:47;;;;;;;30.10;19.35;;;18.40;99.90;;;;;;5105004;28;20077;-64
2021/06/04 21:30:15;;;;;;;29.98;20.13;;;18.40;99.90;;;;;;5108040;28;20039;-57
2021/06/04 21:32:42;;;;;;;29.35;20.85;;;18.40;99.90;;;;;;5104077;28;20028;-59
2021/06/04 21:35:11;;;;;;;36.08;23.13;;;18.40;99.90;;;;;;5102510;28;20057;-57
2021/06/04 21:37:36;;;;;;;35.17;21.13;;;18.30;99.90;;;;;;5099760;28;20036;-61